Terminal Aerodrome Forecast
Issued by NWS Cleveland, OH

Home | Current Version | Previous Version | Text Only | Print | Product List | Glossary On
Versions: 1 2 3 4 5 6 7 8 9 10 11 12 13 14 15 16 17 18 19 20 21 22 23 24 25 26 27 28 29 30 31 32 33 34 35 36 37 38 39 40 41 42
000
FTUS41 KCLE 152031 AAA
TAFTOL
TAF AMD
KTOL 152031Z 1521/1618 18005KT 6SM -SHRA OVC025
      TEMPO 1521/1601 3SM SHRA OVC015
     FM160100 18006KT 4SM -SHRA BR OVC008
     FM161000 VRB03KT P6SM OVC008
     FM161700 07005KT P6SM OVC008=

USA.gov is the U.S. government's official web portal to all federal, state and local government web resources and services.